Time;durP1;ratioP1;P1;durP2;ratioP2;P2;SDS_P1;SDS_P2;PMS_P1;PMS_P2;Temp;Humidity;BMP_temperature;BMP_pressure;BME280_temperature;BME280_humidity;BME280_pressure;Samples;Min_cycle;Max_cycle;Signal;HPM_P1;HPM_P2
2023/09/02 00:00:12;;;;;;;5.90;3.00;;;;;;;22.41;51.63;100570.78;41592066;28;20068;-72
2023/09/02 00:20:13;;;;;;;4.22;3.10;;;;;;;22.59;51.97;100608.88;41573869;28;20240;-73
2023/09/02 00:40:17;;;;;;;4.95;3.50;;;;;;;22.43;52.09;100592.63;41571010;28;20415;-73
2023/09/02 01:00:20;;;;;;;5.22;3.45;;;;;;;22.44;52.12;100604.84;41593889;28;20160;-74
2023/09/02 01:20:31;;;;;;;6.35;3.67;;;;;;;22.32;52.40;100618.00;41594511;28;20050;-72
2023/09/02 01:40:34;;;;;;;4.90;3.70;;;;;;;22.10;52.91;100587.19;41591185;28;20033;-72
2023/09/02 02:00:34;;;;;;;4.68;3.47;;;;;;;21.90;52.94;100600.13;41573124;28;20484;-72
2023/09/02 02:20:49;;;;;;;6.50;3.80;;;;;;;22.57;51.68;100621.38;41574222;28;20037;-74
2023/09/02 02:40:49;;;;;;;6.00;3.50;;;;;;;22.28;51.04;100621.84;41584195;28;20057;-75
2023/09/02 03:01:01;;;;;;;7.57;3.50;;;;;;;22.23;50.84;100618.75;41583480;28;20049;-72
2023/09/02 03:21:04;;;;;;;4.88;3.40;;;;;;;21.96;51.06;100626.97;41590884;28;20053;-71
2023/09/02 03:41:09;;;;;;;7.07;3.50;;;;;;;21.68;51.52;100600.94;41581222;28;20095;-73
2023/09/02 04:01:11;;;;;;;5.15;3.42;;;;;;;21.39;52.70;100613.66;41572765;28;20033;-73
2023/09/02 04:21:12;;;;;;;4.70;3.58;;;;;;;21.68;52.57;100639.63;41552179;28;20045;-74
2023/09/02 04:41:12;;;;;;;6.53;3.60;;;;;;;22.19;51.40;100662.13;41611940;28;21190;-77
2023/09/02 05:01:13;;;;;;;21.10;4.30;;;;;;;23.08;50.36;100654.25;41546617;28;20069;-70
2023/09/02 05:21:13;;;;;;;9.20;3.30;;;;;;;23.26;49.72;100657.22;41636937;28;20041;-70
2023/09/02 05:41:14;;;;;;;11.55;3.40;;;;;;;23.23;49.35;100638.16;41635771;28;20092;-70
2023/09/02 06:01:14;;;;;;;7.03;3.15;;;;;;;23.55;48.85;100639.94;41628678;28;20315;-70
2023/09/02 06:21:14;;;;;;;8.85;3.35;;;;;;;23.74;48.68;100666.50;41636026;28;20147;-70
2023/09/02 06:41:15;;;;;;;5.22;2.60;;;;;;;23.80;48.71;100684.50;41627008;28;20044;-71
2023/09/02 07:01:22;;;;;;;5.07;2.78;;;;;;;23.83;48.72;100686.03;41619946;28;20124;-72
2023/09/02 07:21:22;;;;;;;4.07;2.72;;;;;;;23.70;48.43;100666.88;41618283;28;20049;-71
2023/09/02 07:41:23;;;;;;;4.60;2.60;;;;;;;23.92;48.80;100693.22;41594447;28;20513;-73
2023/09/02 08:01:25;;;;;;;3.33;2.40;;;;;;;23.98;48.62;100700.63;41618256;28;20041;-72
2023/09/02 08:21:25;;;;;;;2.47;2.20;;;;;;;23.76;48.31;100663.72;41603215;28;20038;-71
2023/09/02 08:41:30;;;;;;;4.07;2.22;;;;;;;24.03;48.46;100704.72;41606937;28;20462;-72
2023/09/02 09:01:30;;;;;;;2.77;2.17;;;;;;;23.96;48.30;100694.66;41612052;28;20068;-71
2023/09/02 09:21:31;;;;;;;2.78;2.25;;;;;;;24.14;48.42;100720.50;41582667;28;20128;-72
2023/09/02 09:41:32;;;;;;;3.55;2.17;;;;;;;24.02;48.57;100698.56;41633471;28;20119;-73
2023/09/02 10:01:32;;;;;;;2.90;2.00;;;;;;;24.24;48.70;100713.47;41633586;28;20053;-71
2023/09/02 10:21:33;;;;;;;2.58;2.13;;;;;;;24.35;48.40;100712.56;41629297;28;20046;-72
2023/09/02 10:41:35;;;;;;;2.63;2.25;;;;;;;24.39;48.22;100679.56;41606328;28;20057;-74
2023/09/02 11:01:44;;;;;;;4.07;2.88;;;;;;;24.58;48.03;100692.03;41614440;28;20033;-72
2023/09/02 11:21:48;;;;;;;2.92;2.63;;;;;;;24.61;48.47;100681.16;41616391;28;20045;-72
2023/09/02 11:41:48;;;;;;;3.00;2.50;;;;;;;24.77;47.83;100695.75;41614718;28;20045;-70
2023/09/02 12:02:08;;;;;;;2.63;2.15;;;;;;;24.88;47.86;100679.72;41610808;28;20508;-71
2023/09/02 12:22:09;;;;;;;2.00;1.90;;;;;;;24.98;47.68;100666.50;41606012;28;20574;-71
2023/09/02 12:42:24;;;;;;;1.90;1.70;;;;;;;25.16;47.34;100666.66;41601627;28;20099;-72
2023/09/02 13:02:25;;;;;;;1.65;1.52;;;;;;;25.10;47.93;100653.97;41631923;28;20049;-71
2023/09/02 13:22:26;;;;;;;3.15;1.60;;;;;;;25.45;47.27;100643.81;41618211;28;20053;-72
2023/09/02 13:42:27;;;;;;;1.40;1.30;;;;;;;25.19;47.90;100631.91;41624151;28;20044;-71
2023/09/02 14:02:28;;;;;;;1.52;1.42;;;;;;;25.00;48.01;100608.94;41614788;28;20096;-72
2023/09/02 14:22:29;;;;;;;1.20;1.10;;;;;;;25.23;47.73;100638.63;41620170;28;20479;-71
2023/09/02 14:42:32;;;;;;;1.48;1.35;;;;;;;25.42;47.49;100629.03;41627981;28;20037;-72
2023/09/02 15:02:43;;;;;;;1.33;1.23;;;;;;;25.52;47.49;100613.97;41572110;28;20092;-72
2023/09/02 15:22:43;;;;;;;1.30;1.20;;;;;;;25.51;47.47;100614.06;41615787;28;20056;-72
2023/09/02 15:42:44;;;;;;;1.20;1.10;;;;;;;25.47;47.83;100616.19;41616708;28;20084;-72
2023/09/02 16:02:44;;;;;;;1.33;1.23;;;;;;;25.40;47.91;100646.88;41611890;28;20557;-72
2023/09/02 16:22:45;;;;;;;2.95;1.23;;;;;;;25.43;48.22;100646.59;41594457;28;20448;-72
2023/09/02 16:42:47;;;;;;;9.15;1.52;;;;;;;25.52;47.68;100621.06;41508201;28;20056;-71
2023/09/02 17:02:52;;;;;;;8.02;1.75;;;;;;;25.51;47.04;100645.91;41551561;28;20446;-73
2023/09/02 17:22:55;;;;;;;5.15;2.20;;;;;;;24.48;44.69;100513.78;41585834;28;20046;-80
2023/09/02 17:42:56;;;;;;;3.88;2.00;;;;;;;24.89;45.58;100598.44;41571869;28;20041;-75
2023/09/02 18:02:57;;;;;;;12.30;4.40;;;;;;;25.28;46.91;100662.06;41571982;28;20127;-75
2023/09/02 18:22:58;;;;;;;6.40;4.05;;;;;;;25.30;46.56;100721.06;41601981;28;20068;-75
2023/09/02 18:42:58;;;;;;;9.07;3.83;;;;;;;24.99;45.98;100745.00;41538861;28;20516;-75
2023/09/02 19:02:59;;;;;;;8.57;5.57;;;;;;;24.58;47.51;100746.78;41507347;28;20046;-74
2023/09/02 19:23:00;;;;;;;7.95;3.85;;;;;;;24.72;47.49;100729.75;41521157;28;20436;-72
2023/09/02 19:43:03;;;;;;;4.95;3.70;;;;;;;24.81;48.59;100762.53;41558665;28;20095;-76
2023/09/02 20:03:06;;;;;;;5.47;2.85;;;;;;;24.51;49.29;100746.47;41588603;28;20125;-76
2023/09/02 20:23:06;;;;;;;6.95;2.90;;;;;;;23.16;50.13;100590.25;41550044;28;20052;-76
2023/09/02 20:43:08;;;;;;;4.65;3.15;;;;;;;23.93;50.58;100739.03;41525314;28;20092;-76
2023/09/02 21:03:08;;;;;;;5.93;2.97;;;;;;;23.69;50.91;100712.78;41540795;28;20053;-76
2023/09/02 21:23:09;;;;;;;3.30;2.80;;;;;;;23.31;52.09;100730.84;41601157;28;20056;-75
2023/09/02 21:43:09;;;;;;;6.90;2.97;;;;;;;24.02;51.40;100798.25;41591738;28;20045;-75
2023/09/02 22:03:11;;;;;;;4.18;2.45;;;;;;;23.24;51.06;100729.66;41620780;28;20405;-75
2023/09/02 22:23:14;;;;;;;6.47;2.80;;;;;;;23.34;52.05;100772.88;41629855;28;20061;-74
2023/09/02 22:43:15;;;;;;;4.32;2.40;;;;;;;23.30;52.28;100811.06;41614793;28;20441;-75
2023/09/02 23:03:15;;;;;;;3.65;2.53;;;;;;;22.52;52.75;100727.31;41599058;28;20104;-76
2023/09/02 23:23:16;;;;;;;3.60;2.42;;;;;;;23.02;52.84;100794.72;41599575;28;20389;-76
2023/09/02 23:43:16;;;;;;;2.92;2.63;;;;;;;21.89;53.67;100629.25;41580809;28;20041;-74
